Date,TemperatureHighF,TemperatureAvgF,TemperatureLowF,DewpointHighF,DewpointAvgF,DewpointLowF,HumidityHigh,HumidityAvg,HumidityLow,PressureMaxIn,PressureMinIn,WindSpeedMaxMPH,WindSpeedAvgMPH,GustSpeedMaxMPH,PrecipitationSumIn
2013-4-1,46.4,38.8,30.8,41.8,26.6,17.3,85,62,45,30.14,29.76,9,4,20,0.00
2013-4-2,42.2,31.4,19.7,23.0,18.5,14.0,80,60,43,30.29,30.13,8,2,15,0.00
2013-4-3,46.3,33.1,19.8,23.9,17.6,13.3,77,54,35,30.46,30.29,8,2,14,0.00
2013-4-4,53.8,37.5,23.9,24.8,19.4,15.0,73,51,27,30.41,30.01,4,1,7,0.00
2013-4-5,55.2,41.6,26.2,38.2,27.4,20.1,79,58,40,30.19,29.98,7,2,13,0.00
2013-4-6,58.7,45.9,28.6,30.7,25.1,16.6,76,47,32,30.28,29.93,7,3,15,0.00
2013-4-7,72.8,60.6,51.6,49.5,41.9,29.1,65,51,38,29.99,29.83,9,4,16,0.00
2013-4-8,71.3,60.9,50.3,56.4,51.1,39.0,91,71,57,29.99,29.86,8,2,20,0.00
2013-4-9,81.2,64.7,52.3,62.6,55.5,49.5,92,74,48,30.06,29.88,9,2,16,0.00
2013-4-10,81.7,68.2,57.4,67.6,60.2,53.2,94,77,55,29.93,29.76,13,3,18,0.02
2013-4-11,57.5,47.4,54.4,56.7,31.0,-99.9,97,96,94,29.86,29.53,4,1,6,1.00
2013-4-12,45.4,26.4,-38.9,41.9,-15.6,-99.9,97,51,71,29.92,29.47,8,4,19,0.16
2013-4-13,50.3,43.0,33.1,40.6,35.9,29.4,88,76,65,30.06,29.91,8,3,15,0.00
2013-4-14,64.6,49.0,33.5,46.1,39.1,30.3,91,71,48,30.14,29.93,5,2,10,0.00
2013-4-15,68.9,58.5,44.2,56.4,48.2,39.4,92,69,57,30.01,29.92,7,2,13,0.00
2013-4-16,75.9,63.4,53.9,65.2,58.4,52.7,99,84,66,30.17,30.00,8,2,14,0.32
2013-4-17,66.7,58.2,51.0,61.5,55.5,49.9,97,91,82,30.24,29.99,7,2,11,0.16
2013-4-18,82.7,70.6,59.8,68.0,60.8,56.3,94,73,47,30.01,29.61,9,4,18,0.00
2013-4-19,71.9,50.0,38.2,59.7,42.3,30.9,94,75,58,29.93,29.40,11,6,22,0.66
2013-4-20,46.1,38.9,32.9,33.2,29.8,25.9,89,71,52,30.44,29.93,8,4,15,0.01
2013-4-21,53.9,40.6,26.2,33.9,27.9,21.9,86,62,43,30.60,30.44,5,1,9,0.00
2013-4-22,67.1,49.8,29.3,46.1,36.7,26.0,89,63,42,30.44,30.17,4,1,8,0.00
2013-4-23,71.3,57.3,40.0,52.8,44.4,34.9,87,64,42,30.18,29.87,5,2,14,0.00
2013-4-24,61.9,49.5,33.9,55.9,45.1,30.8,95,85,70,30.21,29.74,10,3,19,0.63
2013-4-25,55.9,43.0,31.5,42.0,34.6,28.8,95,74,50,30.40,30.20,10,2,18,0.00
2013-4-26,61.1,45.6,28.4,40.0,34.0,26.1,94,67,41,30.50,30.38,4,1,11,0.01
2013-4-27,69.2,54.0,33.7,49.4,40.4,31.6,100,65,34,30.39,30.09,4,1,11,0.00
2013-4-28,64.6,57.6,53.5,59.8,54.0,48.1,97,88,75,30.10,29.82,6,2,9,0.60
2013-4-29,65.6,33.0,53.3,57.8,-15.8,-99.9,97,48,72,29.98,29.86,4,0,7,0.41
2013-4-30,75.2,52.7,-39.3,60.4,34.7,-99.9,97,73,56,30.07,29.97,4,1,8,0.01